sensor_id;sensor_type;location;lat;lon;timestamp;P1;durP1;ratioP1;P2;durP2;ratioP2
69730;SDS011;56996;48.138;11.538;2023-06-22T00:01:20;7.20;;;2.60;;
69730;SDS011;56996;48.138;11.538;2023-06-22T00:03:49;7.10;;;2.60;;
69730;SDS011;56996;48.138;11.538;2023-06-22T00:06:16;8.20;;;2.80;;
69730;SDS011;56996;48.138;11.538;2023-06-22T00:08:42;9.70;;;2.90;;
69730;SDS011;56996;48.138;11.538;2023-06-22T00:11:09;8.00;;;2.60;;
69730;SDS011;56996;48.138;11.538;2023-06-22T00:13:37;8.20;;;2.70;;
69730;SDS011;56996;48.138;11.538;2023-06-22T00:16:05;8.80;;;2.90;;
69730;SDS011;56996;48.138;11.538;2023-06-22T00:18:31;9.30;;;3.00;;
69730;SDS011;56996;48.138;11.538;2023-06-22T00:20:59;8.50;;;3.10;;
69730;SDS011;56996;48.138;11.538;2023-06-22T00:23:26;9.00;;;2.80;;
69730;SDS011;56996;48.138;11.538;2023-06-22T00:25:53;10.40;;;2.60;;
69730;SDS011;56996;48.138;11.538;2023-06-22T00:28:19;9.90;;;3.40;;
69730;SDS011;56996;48.138;11.538;2023-06-22T00:30:48;8.30;;;2.80;;
69730;SDS011;56996;48.138;11.538;2023-06-22T00:33:17;7.90;;;2.80;;
69730;SDS011;56996;48.138;11.538;2023-06-22T00:35:44;7.90;;;2.60;;
69730;SDS011;56996;48.138;11.538;2023-06-22T00:38:11;7.90;;;2.90;;
69730;SDS011;56996;48.138;11.538;2023-06-22T00:40:41;9.30;;;3.10;;
69730;SDS011;56996;48.138;11.538;2023-06-22T00:43:07;7.20;;;2.60;;
69730;SDS011;56996;48.138;11.538;2023-06-22T00:45:34;9.70;;;2.90;;
69730;SDS011;56996;48.138;11.538;2023-06-22T00:48:01;9.40;;;3.40;;
69730;SDS011;56996;48.138;11.538;2023-06-22T00:50:31;10.00;;;3.20;;
69730;SDS011;56996;48.138;11.538;2023-06-22T00:53:05;10.30;;;2.60;;
69730;SDS011;56996;48.138;11.538;2023-06-22T00:55:41;7.90;;;3.00;;
69730;SDS011;56996;48.138;11.538;2023-06-22T00:58:11;9.00;;;3.10;;
69730;SDS011;56996;48.138;11.538;2023-06-22T01:00:40;10.20;;;2.80;;
69730;SDS011;56996;48.138;11.538;2023-06-22T01:03:08;9.60;;;3.10;;
69730;SDS011;56996;48.138;11.538;2023-06-22T01:05:37;9.00;;;3.00;;
69730;SDS011;56996;48.138;11.538;2023-06-22T01:11:28;8.50;;;3.00;;
69730;SDS011;56996;48.138;11.538;2023-06-22T01:14:06;7.70;;;2.60;;
69730;SDS011;56996;48.138;11.538;2023-06-22T01:16:37;9.10;;;2.60;;
69730;SDS011;56996;48.138;11.538;2023-06-22T01:19:44;9.20;;;3.20;;
69730;SDS011;56996;48.138;11.538;2023-06-22T01:22:17;8.00;;;3.30;;
69730;SDS011;56996;48.138;11.538;2023-06-22T01:25:22;9.70;;;2.70;;
69730;SDS011;56996;48.138;11.538;2023-06-22T01:28:16;9.80;;;3.10;;
69730;SDS011;56996;48.138;11.538;2023-06-22T01:30:51;10.00;;;3.10;;
69730;SDS011;56996;48.138;11.538;2023-06-22T01:33:32;9.20;;;2.90;;
69730;SDS011;56996;48.138;11.538;2023-06-22T01:36:02;7.30;;;2.70;;
69730;SDS011;56996;48.138;11.538;2023-06-22T01:38:29;9.50;;;3.20;;
69730;SDS011;56996;48.138;11.538;2023-06-22T01:40:57;10.60;;;3.10;;
69730;SDS011;56996;48.138;11.538;2023-06-22T01:43:26;10.20;;;2.50;;
69730;SDS011;56996;48.138;11.538;2023-06-22T01:46:02;10.10;;;3.20;;
69730;SDS011;56996;48.138;11.538;2023-06-22T01:48:31;9.30;;;2.90;;
69730;SDS011;56996;48.138;11.538;2023-06-22T01:51:02;9.30;;;3.00;;
69730;SDS011;56996;48.138;11.538;2023-06-22T01:53:29;10.00;;;3.20;;
69730;SDS011;56996;48.138;11.538;2023-06-22T01:55:56;8.50;;;3.00;;
69730;SDS011;56996;48.138;11.538;2023-06-22T01:58:27;9.20;;;3.00;;
69730;SDS011;56996;48.138;11.538;2023-06-22T02:01:20;9.30;;;3.00;;
69730;SDS011;56996;48.138;11.538;2023-06-22T02:03:57;10.10;;;3.30;;
69730;SDS011;56996;48.138;11.538;2023-06-22T02:06:37;9.80;;;3.40;;
69730;SDS011;56996;48.138;11.538;2023-06-22T02:09:12;11.40;;;3.20;;
69730;SDS011;56996;48.138;11.538;2023-06-22T02:11:44;9.10;;;3.40;;
69730;SDS011;56996;48.138;11.538;2023-06-22T02:14:13;8.70;;;3.10;;
69730;SDS011;56996;48.138;11.538;2023-06-22T02:16:44;9.10;;;2.70;;
69730;SDS011;56996;48.138;11.538;2023-06-22T02:19:11;10.90;;;3.50;;
69730;SDS011;56996;48.138;11.538;2023-06-22T02:21:38;8.80;;;3.00;;
69730;SDS011;56996;48.138;11.538;2023-06-22T02:24:05;10.50;;;3.00;;
69730;SDS011;56996;48.138;11.538;2023-06-22T02:26:32;10.00;;;3.40;;
69730;SDS011;56996;48.138;11.538;2023-06-22T02:29:00;8.30;;;3.30;;
69730;SDS011;56996;48.138;11.538;2023-06-22T02:31:27;10.10;;;4.00;;
69730;SDS011;56996;48.138;11.538;2023-06-22T02:33:58;11.50;;;3.50;;
69730;SDS011;56996;48.138;11.538;2023-06-22T02:36:25;8.90;;;3.20;;
69730;SDS011;56996;48.138;11.538;2023-06-22T02:38:54;9.80;;;3.50;;
69730;SDS011;56996;48.138;11.538;2023-06-22T02:41:23;12.60;;;3.60;;
69730;SDS011;56996;48.138;11.538;2023-06-22T02:43:50;8.60;;;3.20;;
69730;SDS011;56996;48.138;11.538;2023-06-22T02:46:18;9.30;;;3.40;;
69730;SDS011;56996;48.138;11.538;2023-06-22T02:48:45;9.00;;;3.40;;
69730;SDS011;56996;48.138;11.538;2023-06-22T02:51:12;10.20;;;3.40;;
69730;SDS011;56996;48.138;11.538;2023-06-22T02:53:39;11.40;;;3.30;;
69730;SDS011;56996;48.138;11.538;2023-06-22T02:56:06;8.50;;;3.00;;
69730;SDS011;56996;48.138;11.538;2023-06-22T02:58:35;8.30;;;2.90;;
69730;SDS011;56996;48.138;11.538;2023-06-22T03:01:08;8.50;;;3.30;;
69730;SDS011;56996;48.138;11.538;2023-06-22T03:03:36;9.80;;;3.20;;
69730;SDS011;56996;48.138;11.538;2023-06-22T03:06:03;7.80;;;3.10;;
69730;SDS011;56996;48.138;11.538;2023-06-22T03:08:30;11.80;;;3.60;;
69730;SDS011;56996;48.138;11.538;2023-06-22T03:10:57;9.30;;;3.40;;
69730;SDS011;56996;48.138;11.538;2023-06-22T03:13:24;9.90;;;3.60;;
69730;SDS011;56996;48.138;11.538;2023-06-22T03:15:51;11.50;;;4.30;;
69730;SDS011;56996;48.138;11.538;2023-06-22T03:18:17;9.50;;;3.50;;
69730;SDS011;56996;48.138;11.538;2023-06-22T03:20:44;8.80;;;3.30;;
69730;SDS011;56996;48.138;11.538;2023-06-22T03:23:11;10.60;;;3.90;;
69730;SDS011;56996;48.138;11.538;2023-06-22T03:25:37;10.40;;;4.10;;
69730;SDS011;56996;48.138;11.538;2023-06-22T03:28:04;9.90;;;4.20;;
69730;SDS011;56996;48.138;11.538;2023-06-22T03:30:31;10.80;;;4.00;;
69730;SDS011;56996;48.138;11.538;2023-06-22T03:32:59;8.40;;;3.80;;
69730;SDS011;56996;48.138;11.538;2023-06-22T03:35:26;11.10;;;4.20;;
69730;SDS011;56996;48.138;11.538;2023-06-22T03:37:54;9.20;;;3.80;;
69730;SDS011;56996;48.138;11.538;2023-06-22T03:40:21;8.30;;;3.60;;
69730;SDS011;56996;48.138;11.538;2023-06-22T03:42:48;9.60;;;3.80;;
69730;SDS011;56996;48.138;11.538;2023-06-22T03:45:14;11.50;;;3.70;;
69730;SDS011;56996;48.138;11.538;2023-06-22T03:47:41;10.20;;;3.60;;
69730;SDS011;56996;48.138;11.538;2023-06-22T03:50:08;10.00;;;3.70;;
69730;SDS011;56996;48.138;11.538;2023-06-22T03:52:35;11.30;;;3.70;;
69730;SDS011;56996;48.138;11.538;2023-06-22T03:55:02;9.90;;;3.60;;
69730;SDS011;56996;48.138;11.538;2023-06-22T03:57:29;8.30;;;3.20;;
69730;SDS011;56996;48.138;11.538;2023-06-22T03:59:56;11.10;;;3.60;;
69730;SDS011;56996;48.138;11.538;2023-06-22T04:02:24;9.20;;;3.40;;
69730;SDS011;56996;48.138;11.538;2023-06-22T04:04:51;9.40;;;3.90;;
69730;SDS011;56996;48.138;11.538;2023-06-22T04:07:18;8.50;;;3.50;;
69730;SDS011;56996;48.138;11.538;2023-06-22T04:09:45;9.80;;;3.80;;
69730;SDS011;56996;48.138;11.538;2023-06-22T04:12:11;9.00;;;3.30;;
69730;SDS011;56996;48.138;11.538;2023-06-22T04:14:38;9.50;;;3.80;;
69730;SDS011;56996;48.138;11.538;2023-06-22T04:17:05;10.50;;;3.50;;
69730;SDS011;56996;48.138;11.538;2023-06-22T04:19:31;9.20;;;3.80;;
69730;SDS011;56996;48.138;11.538;2023-06-22T04:21:58;10.60;;;4.00;;
69730;SDS011;56996;48.138;11.538;2023-06-22T04:24:25;9.30;;;3.60;;
69730;SDS011;56996;48.138;11.538;2023-06-22T04:26:51;11.10;;;3.90;;
69730;SDS011;56996;48.138;11.538;2023-06-22T04:29:21;12.20;;;4.10;;
69730;SDS011;56996;48.138;11.538;2023-06-22T04:31:56;10.00;;;4.20;;
69730;SDS011;56996;48.138;11.538;2023-06-22T04:34:25;11.30;;;4.50;;
69730;SDS011;56996;48.138;11.538;2023-06-22T04:36:55;9.20;;;4.30;;
69730;SDS011;56996;48.138;11.538;2023-06-22T04:39:21;10.50;;;4.40;;
69730;SDS011;56996;48.138;11.538;2023-06-22T04:41:48;10.70;;;4.50;;
69730;SDS011;56996;48.138;11.538;2023-06-22T04:44:17;13.40;;;4.10;;
69730;SDS011;56996;48.138;11.538;2023-06-22T04:46:55;10.40;;;4.30;;
69730;SDS011;56996;48.138;11.538;2023-06-22T04:49:28;10.00;;;4.20;;
69730;SDS011;56996;48.138;11.538;2023-06-22T04:52:00;11.80;;;4.60;;
69730;SDS011;56996;48.138;11.538;2023-06-22T04:54:31;10.70;;;4.50;;
69730;SDS011;56996;48.138;11.538;2023-06-22T04:57:03;9.90;;;4.30;;
69730;SDS011;56996;48.138;11.538;2023-06-22T04:59:31;13.20;;;4.40;;
69730;SDS011;56996;48.138;11.538;2023-06-22T05:01:59;13.20;;;4.70;;
69730;SDS011;56996;48.138;11.538;2023-06-22T05:04:29;11.80;;;4.90;;
69730;SDS011;56996;48.138;11.538;2023-06-22T05:07:00;11.10;;;4.60;;
69730;SDS011;56996;48.138;11.538;2023-06-22T05:09:27;11.80;;;4.60;;
69730;SDS011;56996;48.138;11.538;2023-06-22T05:11:54;10.90;;;4.50;;
69730;SDS011;56996;48.138;11.538;2023-06-22T05:14:22;11.60;;;4.90;;
69730;SDS011;56996;48.138;11.538;2023-06-22T05:16:49;11.10;;;5.00;;
69730;SDS011;56996;48.138;11.538;2023-06-22T05:19:18;12.70;;;4.80;;
69730;SDS011;56996;48.138;11.538;2023-06-22T05:21:45;11.90;;;5.40;;
69730;SDS011;56996;48.138;11.538;2023-06-22T05:24:12;14.80;;;6.40;;
69730;SDS011;56996;48.138;11.538;2023-06-22T05:26:39;12.50;;;5.50;;
69730;SDS011;56996;48.138;11.538;2023-06-22T05:29:23;12.10;;;5.20;;
69730;SDS011;56996;48.138;11.538;2023-06-22T05:31:50;13.10;;;5.30;;
69730;SDS011;56996;48.138;11.538;2023-06-22T05:34:17;16.00;;;5.90;;
69730;SDS011;56996;48.138;11.538;2023-06-22T05:36:43;11.30;;;5.20;;
69730;SDS011;56996;48.138;11.538;2023-06-22T05:39:14;13.10;;;5.90;;
69730;SDS011;56996;48.138;11.538;2023-06-22T05:41:42;12.00;;;6.00;;
69730;SDS011;56996;48.138;11.538;2023-06-22T05:44:10;13.10;;;6.00;;
69730;SDS011;56996;48.138;11.538;2023-06-22T05:46:39;14.10;;;6.10;;
69730;SDS011;56996;48.138;11.538;2023-06-22T05:49:07;11.80;;;6.30;;
69730;SDS011;56996;48.138;11.538;2023-06-22T05:51:33;15.50;;;5.90;;
69730;SDS011;56996;48.138;11.538;2023-06-22T05:54:00;10.50;;;5.30;;
69730;SDS011;56996;48.138;11.538;2023-06-22T05:56:27;15.50;;;6.30;;
69730;SDS011;56996;48.138;11.538;2023-06-22T05:58:53;11.00;;;4.70;;
69730;SDS011;56996;48.138;11.538;2023-06-22T06:01:20;11.70;;;5.10;;
69730;SDS011;56996;48.138;11.538;2023-06-22T06:03:47;12.30;;;5.70;;
69730;SDS011;56996;48.138;11.538;2023-06-22T06:06:15;13.70;;;5.50;;
69730;SDS011;56996;48.138;11.538;2023-06-22T06:08:42;13.10;;;5.40;;
69730;SDS011;56996;48.138;11.538;2023-06-22T06:11:09;13.00;;;5.80;;
69730;SDS011;56996;48.138;11.538;2023-06-22T06:13:36;12.00;;;5.70;;
69730;SDS011;56996;48.138;11.538;2023-06-22T06:16:02;11.80;;;4.90;;
69730;SDS011;56996;48.138;11.538;2023-06-22T06:18:29;12.40;;;5.10;;
69730;SDS011;56996;48.138;11.538;2023-06-22T06:20:56;11.50;;;5.80;;
69730;SDS011;56996;48.138;11.538;2023-06-22T06:23:23;12.20;;;6.00;;
69730;SDS011;56996;48.138;11.538;2023-06-22T06:25:49;13.40;;;6.70;;
69730;SDS011;56996;48.138;11.538;2023-06-22T06:28:16;11.50;;;5.50;;
69730;SDS011;56996;48.138;11.538;2023-06-22T06:30:43;10.30;;;5.90;;
69730;SDS011;56996;48.138;11.538;2023-06-22T06:33:09;10.60;;;6.00;;
69730;SDS011;56996;48.138;11.538;2023-06-22T06:35:36;11.10;;;6.00;;
69730;SDS011;56996;48.138;11.538;2023-06-22T06:38:05;13.40;;;6.60;;
69730;SDS011;56996;48.138;11.538;2023-06-22T06:40:31;11.60;;;5.90;;
69730;SDS011;56996;48.138;11.538;2023-06-22T06:42:59;10.80;;;6.60;;
69730;SDS011;56996;48.138;11.538;2023-06-22T06:45:26;12.50;;;6.30;;
69730;SDS011;56996;48.138;11.538;2023-06-22T06:47:55;10.40;;;6.70;;
69730;SDS011;56996;48.138;11.538;2023-06-22T06:50:22;11.80;;;7.00;;
69730;SDS011;56996;48.138;11.538;2023-06-22T06:52:49;13.60;;;7.40;;
69730;SDS011;56996;48.138;11.538;2023-06-22T06:55:19;12.20;;;6.60;;
69730;SDS011;56996;48.138;11.538;2023-06-22T06:57:47;11.60;;;6.00;;
69730;SDS011;56996;48.138;11.538;2023-06-22T07:00:15;11.90;;;6.60;;
69730;SDS011;56996;48.138;11.538;2023-06-22T07:02:43;12.10;;;7.20;;
69730;SDS011;56996;48.138;11.538;2023-06-22T07:05:12;12.60;;;7.50;;
69730;SDS011;56996;48.138;11.538;2023-06-22T07:07:39;11.10;;;6.70;;
69730;SDS011;56996;48.138;11.538;2023-06-22T07:10:08;11.20;;;7.60;;
69730;SDS011;56996;48.138;11.538;2023-06-22T07:12:35;13.80;;;7.90;;
69730;SDS011;56996;48.138;11.538;2023-06-22T07:15:07;13.40;;;8.50;;
69730;SDS011;56996;48.138;11.538;2023-06-22T07:17:36;12.40;;;8.20;;
69730;SDS011;56996;48.138;11.538;2023-06-22T07:20:03;14.30;;;8.90;;
69730;SDS011;56996;48.138;11.538;2023-06-22T07:22:42;13.20;;;8.70;;
69730;SDS011;56996;48.138;11.538;2023-06-22T07:25:13;11.10;;;8.60;;
69730;SDS011;56996;48.138;11.538;2023-06-22T07:27:59;12.70;;;9.40;;
69730;SDS011;56996;48.138;11.538;2023-06-22T07:30:31;12.10;;;8.50;;
69730;SDS011;56996;48.138;11.538;2023-06-22T07:33:00;12.80;;;10.10;;
69730;SDS011;56996;48.138;11.538;2023-06-22T07:35:30;14.30;;;9.20;;
69730;SDS011;56996;48.138;11.538;2023-06-22T07:37:57;15.40;;;10.70;;
69730;SDS011;56996;48.138;11.538;2023-06-22T07:40:24;16.20;;;14.40;;
69730;SDS011;56996;48.138;11.538;2023-06-22T07:42:51;15.20;;;11.60;;
69730;SDS011;56996;48.138;11.538;2023-06-22T07:45:21;14.20;;;11.10;;
69730;SDS011;56996;48.138;11.538;2023-06-22T07:47:47;14.20;;;10.90;;
69730;SDS011;56996;48.138;11.538;2023-06-22T07:50:14;13.50;;;10.60;;
69730;SDS011;56996;48.138;11.538;2023-06-22T07:52:41;13.50;;;12.00;;
69730;SDS011;56996;48.138;11.538;2023-06-22T07:55:08;13.40;;;10.00;;
69730;SDS011;56996;48.138;11.538;2023-06-22T07:57:35;15.50;;;12.60;;
69730;SDS011;56996;48.138;11.538;2023-06-22T08:00:04;14.30;;;12.30;;
69730;SDS011;56996;48.138;11.538;2023-06-22T08:02:47;14.30;;;12.40;;
69730;SDS011;56996;48.138;11.538;2023-06-22T08:05:15;13.90;;;11.50;;
69730;SDS011;56996;48.138;11.538;2023-06-22T08:07:44;13.00;;;10.60;;
69730;SDS011;56996;48.138;11.538;2023-06-22T08:10:14;13.50;;;10.50;;
69730;SDS011;56996;48.138;11.538;2023-06-22T08:12:42;15.20;;;12.10;;
69730;SDS011;56996;48.138;11.538;2023-06-22T08:15:09;12.60;;;10.20;;
69730;SDS011;56996;48.138;11.538;2023-06-22T08:17:37;15.40;;;10.60;;
69730;SDS011;56996;48.138;11.538;2023-06-22T08:20:06;11.40;;;9.50;;
69730;SDS011;56996;48.138;11.538;2023-06-22T08:22:36;16.10;;;10.90;;
69730;SDS011;56996;48.138;11.538;2023-06-22T08:25:03;15.60;;;11.40;;
69730;SDS011;56996;48.138;11.538;2023-06-22T08:27:31;17.50;;;12.40;;
69730;SDS011;56996;48.138;11.538;2023-06-22T08:30:00;24.20;;;21.90;;
69730;SDS011;56996;48.138;11.538;2023-06-22T08:32:28;15.60;;;14.10;;
69730;SDS011;56996;48.138;11.538;2023-06-22T08:34:56;15.10;;;12.40;;
69730;SDS011;56996;48.138;11.538;2023-06-22T08:37:24;15.20;;;12.70;;
69730;SDS011;56996;48.138;11.538;2023-06-22T08:39:59;16.70;;;11.00;;
69730;SDS011;56996;48.138;11.538;2023-06-22T08:42:26;15.10;;;11.00;;
69730;SDS011;56996;48.138;11.538;2023-06-22T08:44:53;15.20;;;10.30;;
69730;SDS011;56996;48.138;11.538;2023-06-22T08:47:20;14.70;;;8.90;;
69730;SDS011;56996;48.138;11.538;2023-06-22T08:49:48;13.30;;;8.30;;
69730;SDS011;56996;48.138;11.538;2023-06-22T08:52:15;19.00;;;15.00;;
69730;SDS011;56996;48.138;11.538;2023-06-22T08:54:44;16.20;;;10.20;;
69730;SDS011;56996;48.138;11.538;2023-06-22T08:57:10;13.50;;;9.70;;
69730;SDS011;56996;48.138;11.538;2023-06-22T08:59:37;16.30;;;9.70;;
69730;SDS011;56996;48.138;11.538;2023-06-22T09:02:04;15.50;;;9.30;;
69730;SDS011;56996;48.138;11.538;2023-06-22T09:04:32;16.00;;;10.20;;
69730;SDS011;56996;48.138;11.538;2023-06-22T09:07:02;14.50;;;10.80;;
69730;SDS011;56996;48.138;11.538;2023-06-22T09:09:29;14.20;;;10.50;;
69730;SDS011;56996;48.138;11.538;2023-06-22T09:11:56;13.80;;;10.00;;
69730;SDS011;56996;48.138;11.538;2023-06-22T09:14:22;12.70;;;9.40;;
69730;SDS011;56996;48.138;11.538;2023-06-22T09:16:49;11.50;;;9.70;;
69730;SDS011;56996;48.138;11.538;2023-06-22T09:19:16;11.50;;;9.50;;
69730;SDS011;56996;48.138;11.538;2023-06-22T09:21:42;12.60;;;9.40;;
69730;SDS011;56996;48.138;11.538;2023-06-22T09:24:09;13.40;;;9.10;;
69730;SDS011;56996;48.138;11.538;2023-06-22T09:26:36;14.40;;;9.50;;
69730;SDS011;56996;48.138;11.538;2023-06-22T09:29:05;14.40;;;9.40;;
69730;SDS011;56996;48.138;11.538;2023-06-22T09:31:32;16.10;;;8.90;;
69730;SDS011;56996;48.138;11.538;2023-06-22T09:33:59;12.80;;;8.50;;
69730;SDS011;56996;48.138;11.538;2023-06-22T09:36:26;12.20;;;9.40;;
69730;SDS011;56996;48.138;11.538;2023-06-22T09:38:52;13.50;;;8.90;;
69730;SDS011;56996;48.138;11.538;2023-06-22T09:41:22;15.30;;;9.30;;
69730;SDS011;56996;48.138;11.538;2023-06-22T09:43:50;14.70;;;8.70;;
69730;SDS011;56996;48.138;11.538;2023-06-22T09:46:20;13.20;;;7.80;;
69730;SDS011;56996;48.138;11.538;2023-06-22T09:48:48;14.10;;;7.60;;
69730;SDS011;56996;48.138;11.538;2023-06-22T09:51:14;12.70;;;7.60;;
69730;SDS011;56996;48.138;11.538;2023-06-22T09:53:43;11.50;;;6.60;;
69730;SDS011;56996;48.138;11.538;2023-06-22T09:56:10;15.60;;;7.30;;
69730;SDS011;56996;48.138;11.538;2023-06-22T09:58:46;11.90;;;6.50;;
69730;SDS011;56996;48.138;11.538;2023-06-22T10:01:13;13.40;;;6.50;;
69730;SDS011;56996;48.138;11.538;2023-06-22T10:03:42;13.60;;;6.60;;
69730;SDS011;56996;48.138;11.538;2023-06-22T10:06:09;13.50;;;6.20;;
69730;SDS011;56996;48.138;11.538;2023-06-22T10:08:36;11.60;;;6.10;;
69730;SDS011;56996;48.138;11.538;2023-06-22T10:11:03;11.50;;;6.30;;
69730;SDS011;56996;48.138;11.538;2023-06-22T10:13:30;13.00;;;6.40;;
69730;SDS011;56996;48.138;11.538;2023-06-22T10:15:57;12.20;;;6.30;;
69730;SDS011;56996;48.138;11.538;2023-06-22T10:18:24;13.80;;;6.70;;
69730;SDS011;56996;48.138;11.538;2023-06-22T10:20:52;11.90;;;6.60;;
69730;SDS011;56996;48.138;11.538;2023-06-22T10:23:21;15.70;;;6.70;;
69730;SDS011;56996;48.138;11.538;2023-06-22T10:25:48;12.90;;;5.70;;
69730;SDS011;56996;48.138;11.538;2023-06-22T10:28:15;15.80;;;6.00;;
69730;SDS011;56996;48.138;11.538;2023-06-22T10:30:42;13.70;;;6.10;;
69730;SDS011;56996;48.138;11.538;2023-06-22T10:33:10;14.30;;;6.50;;
69730;SDS011;56996;48.138;11.538;2023-06-22T10:35:38;12.90;;;5.90;;
69730;SDS011;56996;48.138;11.538;2023-06-22T10:38:05;13.60;;;6.00;;
69730;SDS011;56996;48.138;11.538;2023-06-22T10:40:32;15.30;;;6.20;;
69730;SDS011;56996;48.138;11.538;2023-06-22T10:42:59;13.10;;;5.90;;
69730;SDS011;56996;48.138;11.538;2023-06-22T10:45:26;15.30;;;7.00;;
69730;SDS011;56996;48.138;11.538;2023-06-22T10:47:54;12.60;;;6.10;;
69730;SDS011;56996;48.138;11.538;2023-06-22T10:50:21;12.20;;;6.40;;
69730;SDS011;56996;48.138;11.538;2023-06-22T10:52:50;12.80;;;6.00;;
69730;SDS011;56996;48.138;11.538;2023-06-22T10:55:17;11.20;;;5.80;;
69730;SDS011;56996;48.138;11.538;2023-06-22T10:57:43;12.10;;;5.50;;
69730;SDS011;56996;48.138;11.538;2023-06-22T11:00:14;13.70;;;7.00;;
69730;SDS011;56996;48.138;11.538;2023-06-22T11:02:42;13.10;;;6.60;;
69730;SDS011;56996;48.138;11.538;2023-06-22T11:05:09;14.10;;;6.80;;
69730;SDS011;56996;48.138;11.538;2023-06-22T11:07:37;13.80;;;6.40;;
69730;SDS011;56996;48.138;11.538;2023-06-22T11:10:12;11.70;;;5.50;;
69730;SDS011;56996;48.138;11.538;2023-06-22T11:12:39;13.20;;;5.60;;
69730;SDS011;56996;48.138;11.538;2023-06-22T11:15:07;14.40;;;6.10;;
69730;SDS011;56996;48.138;11.538;2023-06-22T11:17:34;13.10;;;6.20;;
69730;SDS011;56996;48.138;11.538;2023-06-22T11:20:01;14.90;;;5.20;;
69730;SDS011;56996;48.138;11.538;2023-06-22T11:22:31;11.80;;;5.40;;
69730;SDS011;56996;48.138;11.538;2023-06-22T11:25:00;12.90;;;5.80;;
69730;SDS011;56996;48.138;11.538;2023-06-22T11:27:27;13.20;;;5.80;;
69730;SDS011;56996;48.138;11.538;2023-06-22T11:29:54;14.20;;;5.90;;
69730;SDS011;56996;48.138;11.538;2023-06-22T11:32:21;13.30;;;6.20;;
69730;SDS011;56996;48.138;11.538;2023-06-22T11:34:49;11.30;;;5.90;;
69730;SDS011;56996;48.138;11.538;2023-06-22T11:37:16;11.70;;;5.60;;
69730;SDS011;56996;48.138;11.538;2023-06-22T11:39:42;10.60;;;5.90;;
69730;SDS011;56996;48.138;11.538;2023-06-22T11:42:13;14.60;;;6.00;;
69730;SDS011;56996;48.138;11.538;2023-06-22T11:44:40;12.10;;;5.70;;
69730;SDS011;56996;48.138;11.538;2023-06-22T11:47:06;13.40;;;5.90;;
69730;SDS011;56996;48.138;11.538;2023-06-22T11:49:33;10.30;;;5.40;;
69730;SDS011;56996;48.138;11.538;2023-06-22T11:52:00;15.90;;;5.90;;
69730;SDS011;56996;48.138;11.538;2023-06-22T11:54:26;12.90;;;5.40;;
69730;SDS011;56996;48.138;11.538;2023-06-22T11:56:53;14.60;;;6.70;;
69730;SDS011;56996;48.138;11.538;2023-06-22T11:59:20;14.20;;;6.20;;
69730;SDS011;56996;48.138;11.538;2023-06-22T12:01:48;12.90;;;6.20;;
69730;SDS011;56996;48.138;11.538;2023-06-22T12:04:17;16.00;;;6.40;;
69730;SDS011;56996;48.138;11.538;2023-06-22T12:06:44;12.80;;;5.80;;
69730;SDS011;56996;48.138;11.538;2023-06-22T12:09:11;14.80;;;6.40;;
69730;SDS011;56996;48.138;11.538;2023-06-22T12:11:39;11.40;;;5.10;;
69730;SDS011;56996;48.138;11.538;2023-06-22T12:14:06;12.40;;;5.90;;
69730;SDS011;56996;48.138;11.538;2023-06-22T12:16:33;13.80;;;6.30;;
69730;SDS011;56996;48.138;11.538;2023-06-22T12:19:00;13.60;;;6.10;;
69730;SDS011;56996;48.138;11.538;2023-06-22T12:21:26;11.80;;;6.10;;
69730;SDS011;56996;48.138;11.538;2023-06-22T12:23:54;14.50;;;6.20;;
69730;SDS011;56996;48.138;11.538;2023-06-22T12:26:21;12.60;;;5.40;;
69730;SDS011;56996;48.138;11.538;2023-06-22T12:28:48;12.00;;;6.20;;
69730;SDS011;56996;48.138;11.538;2023-06-22T12:31:15;14.80;;;6.60;;
69730;SDS011;56996;48.138;11.538;2023-06-22T12:33:41;13.20;;;5.70;;
69730;SDS011;56996;48.138;11.538;2023-06-22T12:36:08;17.00;;;6.50;;
69730;SDS011;56996;48.138;11.538;2023-06-22T12:38:35;11.10;;;5.60;;
69730;SDS011;56996;48.138;11.538;2023-06-22T12:41:02;15.30;;;6.20;;
69730;SDS011;56996;48.138;11.538;2023-06-22T12:43:28;11.70;;;5.30;;
69730;SDS011;56996;48.138;11.538;2023-06-22T12:45:55;13.40;;;6.00;;
69730;SDS011;56996;48.138;11.538;2023-06-22T12:48:22;14.80;;;6.00;;
69730;SDS011;56996;48.138;11.538;2023-06-22T12:50:49;12.60;;;5.50;;
69730;SDS011;56996;48.138;11.538;2023-06-22T12:53:16;12.20;;;5.80;;
69730;SDS011;56996;48.138;11.538;2023-06-22T12:55:43;11.90;;;5.70;;
69730;SDS011;56996;48.138;11.538;2023-06-22T12:58:09;13.80;;;5.60;;
69730;SDS011;56996;48.138;11.538;2023-06-22T13:00:38;11.90;;;5.70;;
69730;SDS011;56996;48.138;11.538;2023-06-22T13:03:05;13.40;;;5.50;;
69730;SDS011;56996;48.138;11.538;2023-06-22T13:05:32;14.20;;;5.40;;
69730;SDS011;56996;48.138;11.538;2023-06-22T13:08:01;12.10;;;5.70;;
69730;SDS011;56996;48.138;11.538;2023-06-22T13:10:29;13.70;;;5.20;;
69730;SDS011;56996;48.138;11.538;2023-06-22T13:12:57;12.70;;;5.80;;
69730;SDS011;56996;48.138;11.538;2023-06-22T13:15:28;15.90;;;5.90;;
69730;SDS011;56996;48.138;11.538;2023-06-22T13:17:55;14.20;;;6.00;;
69730;SDS011;56996;48.138;11.538;2023-06-22T13:20:22;13.80;;;5.90;;
69730;SDS011;56996;48.138;11.538;2023-06-22T13:22:49;10.80;;;5.40;;
69730;SDS011;56996;48.138;11.538;2023-06-22T13:25:16;14.50;;;5.50;;
69730;SDS011;56996;48.138;11.538;2023-06-22T13:27:45;12.10;;;5.60;;
69730;SDS011;56996;48.138;11.538;2023-06-22T13:30:13;11.20;;;5.50;;
69730;SDS011;56996;48.138;11.538;2023-06-22T13:32:41;13.40;;;5.90;;
69730;SDS011;56996;48.138;11.538;2023-06-22T13:35:26;12.10;;;5.60;;
69730;SDS011;56996;48.138;11.538;2023-06-22T13:37:52;11.60;;;5.70;;
69730;SDS011;56996;48.138;11.538;2023-06-22T13:40:37;11.80;;;5.90;;
69730;SDS011;56996;48.138;11.538;2023-06-22T13:43:07;12.70;;;5.40;;
69730;SDS011;56996;48.138;11.538;2023-06-22T13:45:51;12.60;;;5.30;;
69730;SDS011;56996;48.138;11.538;2023-06-22T13:48:18;9.40;;;5.20;;
69730;SDS011;56996;48.138;11.538;2023-06-22T13:50:45;10.70;;;5.00;;
69730;SDS011;56996;48.138;11.538;2023-06-22T13:53:11;12.20;;;5.40;;
69730;SDS011;56996;48.138;11.538;2023-06-22T13:55:39;12.20;;;5.40;;
69730;SDS011;56996;48.138;11.538;2023-06-22T13:58:06;14.10;;;5.60;;
69730;SDS011;56996;48.138;11.538;2023-06-22T14:00:33;11.60;;;5.80;;
69730;SDS011;56996;48.138;11.538;2023-06-22T14:02:59;11.30;;;5.50;;
69730;SDS011;56996;48.138;11.538;2023-06-22T14:05:26;14.60;;;5.50;;
69730;SDS011;56996;48.138;11.538;2023-06-22T14:07:53;13.30;;;5.40;;
69730;SDS011;56996;48.138;11.538;2023-06-22T14:10:20;14.30;;;5.20;;
69730;SDS011;56996;48.138;11.538;2023-06-22T14:12:47;12.40;;;5.40;;
69730;SDS011;56996;48.138;11.538;2023-06-22T14:15:13;14.80;;;5.80;;
69730;SDS011;56996;48.138;11.538;2023-06-22T14:17:40;12.60;;;5.20;;
69730;SDS011;56996;48.138;11.538;2023-06-22T14:20:07;12.60;;;5.00;;
69730;SDS011;56996;48.138;11.538;2023-06-22T14:22:35;12.30;;;4.60;;
69730;SDS011;56996;48.138;11.538;2023-06-22T14:25:02;12.70;;;4.90;;
69730;SDS011;56996;48.138;11.538;2023-06-22T14:27:29;11.00;;;5.30;;
69730;SDS011;56996;48.138;11.538;2023-06-22T14:29:56;12.10;;;5.60;;
69730;SDS011;56996;48.138;11.538;2023-06-22T14:32:23;11.10;;;5.60;;
69730;SDS011;56996;48.138;11.538;2023-06-22T14:34:50;13.40;;;5.50;;